createdAt,value
2023-02-19T00:01:36.785Z,18.13
2023-02-19T00:04:07.442Z,20.35
2023-02-19T00:06:36.063Z,15.97
2023-02-19T00:09:04.441Z,19.65
2023-02-19T00:11:33.570Z,18.98
2023-02-19T00:14:02.257Z,21.05
2023-02-19T00:16:39.014Z,19.08
2023-02-19T00:19:08.971Z,19.57
2023-02-19T00:21:36.133Z,11.85
2023-02-19T00:24:05.699Z,20.27
2023-02-19T00:26:33.770Z,17.33
2023-02-19T00:29:01.748Z,16.13
2023-02-19T00:31:34.404Z,14.77
2023-02-19T00:34:04.378Z,16.17
2023-02-19T00:36:33.045Z,17.23
2023-02-19T00:39:00.183Z,15.25
2023-02-19T00:41:29.092Z,14.60
2023-02-19T00:44:03.307Z,17.03
2023-02-19T00:46:33.580Z,16.25
2023-02-19T00:49:01.559Z,21.88
2023-02-19T00:51:31.252Z,16.83
2023-02-19T00:54:00.184Z,20.77
2023-02-19T00:56:28.064Z,18.80
2023-02-19T00:58:55.981Z,18.17
2023-02-19T01:01:23.184Z,21.05
2023-02-19T01:03:51.610Z,21.58
2023-02-19T01:06:20.634Z,18.35
2023-02-19T01:08:48.147Z,21.10
2023-02-19T01:11:16.685Z,21.75
2023-02-19T01:13:44.544Z,14.20
2023-02-19T01:16:15.867Z,19.88
2023-02-19T01:18:43.468Z,20.80
2023-02-19T01:21:16.354Z,23.40
2023-02-19T01:23:44.324Z,14.88
2023-02-19T01:26:17.826Z,19.52
2023-02-19T01:28:45.780Z,19.13
2023-02-19T01:31:16.254Z,26.58
2023-02-19T01:33:48.245Z,15.83
2023-02-19T01:36:16.778Z,17.20
2023-02-19T01:38:44.309Z,14.43
2023-02-19T01:41:14.822Z,20.05
2023-02-19T01:44:12.377Z,20.15
2023-02-19T01:46:41.728Z,19.03
2023-02-19T01:49:21.291Z,19.25
2023-02-19T01:51:54.468Z,18.13
2023-02-19T01:54:25.154Z,18.35
2023-02-19T01:56:52.704Z,19.27
2023-02-19T01:59:19.923Z,18.63
2023-02-19T02:01:47.223Z,17.38
2023-02-19T02:04:16.252Z,24.27
2023-02-19T02:06:54.352Z,21.02
2023-02-19T02:09:44.270Z,13.48
2023-02-19T02:12:12.845Z,19.43
2023-02-19T02:14:45.241Z,19.52
2023-02-19T02:17:39.661Z,14.65
2023-02-19T02:20:24.902Z,16.48
2023-02-19T02:23:12.405Z,15.75
2023-02-19T02:26:00.172Z,19.47
2023-02-19T02:28:37.146Z,18.58
2023-02-19T02:31:15.418Z,18.85
2023-02-19T02:33:53.352Z,15.18
2023-02-19T02:36:24.830Z,10.63
2023-02-19T02:38:54.327Z,19.07
2023-02-19T02:41:23.648Z,16.77
2023-02-19T02:43:50.723Z,17.20
2023-02-19T02:46:34.258Z,17.33
2023-02-19T02:49:19.048Z,12.43
2023-02-19T02:51:51.041Z,18.07
2023-02-19T02:54:47.909Z,15.52
2023-02-19T02:57:19.129Z,12.90
2023-02-19T02:59:53.745Z,18.35
2023-02-19T03:02:31.231Z,20.58
2023-02-19T03:05:41.500Z,12.77
2023-02-19T03:08:19.992Z,14.00
2023-02-19T03:10:56.140Z,15.52
2023-02-19T03:13:51.194Z,17.30
2023-02-19T03:16:42.897Z,19.08
2023-02-19T03:19:20.065Z,12.67
2023-02-19T03:21:53.711Z,16.75
2023-02-19T03:24:49.641Z,16.40
2023-02-19T03:27:20.653Z,15.52
2023-02-19T03:29:54.948Z,15.98
2023-02-19T03:32:49.546Z,13.53
2023-02-19T03:35:24.710Z,15.35
2023-02-19T03:38:23.629Z,14.07
2023-02-19T03:41:16.914Z,13.30
2023-02-19T03:43:58.492Z,13.10
2023-02-19T03:46:30.114Z,17.00
2023-02-19T03:49:04.870Z,13.73
2023-02-19T03:51:39.948Z,17.13
2023-02-19T03:54:19.350Z,17.88
2023-02-19T03:56:46.360Z,17.77
2023-02-19T03:59:39.353Z,15.13
2023-02-19T04:02:12.871Z,18.55
2023-02-19T04:04:45.793Z,14.55
2023-02-19T04:07:13.564Z,15.75
2023-02-19T04:09:48.979Z,12.02
2023-02-19T04:12:21.343Z,19.83
2023-02-19T04:15:00.963Z,15.10
2023-02-19T04:17:52.962Z,14.15
2023-02-19T04:20:22.498Z,13.40
2023-02-19T04:22:50.168Z,17.38
2023-02-19T04:25:17.492Z,12.97
2023-02-19T04:27:46.168Z,15.20
2023-02-19T04:30:14.315Z,19.20
2023-02-19T04:32:41.522Z,14.77
2023-02-19T04:35:08.839Z,19.08
2023-02-19T04:37:48.693Z,15.83
2023-02-19T04:40:16.228Z,16.75
2023-02-19T04:42:43.250Z,11.25
2023-02-19T04:45:10.306Z,16.48
2023-02-19T04:47:37.256Z,16.55
2023-02-19T04:50:24.023Z,13.50
2023-02-19T04:52:51.089Z,16.30
2023-02-19T04:55:18.660Z,17.23
2023-02-19T04:57:45.968Z,17.17
2023-02-19T05:00:13.969Z,10.38
2023-02-19T05:02:41.054Z,18.33
2023-02-19T05:05:08.363Z,16.42
2023-02-19T05:07:35.378Z,12.88
2023-02-19T05:10:02.391Z,18.83
2023-02-19T05:12:31.406Z,14.25
2023-02-19T05:14:59.269Z,11.60
2023-02-19T05:17:26.210Z,10.07
2023-02-19T05:19:53.225Z,14.07
2023-02-19T05:22:20.211Z,15.70
2023-02-19T05:24:55.962Z,15.30
2023-02-19T05:27:26.187Z,15.87
2023-02-19T05:29:53.175Z,12.02
2023-02-19T05:32:20.172Z,16.17
2023-02-19T05:34:47.246Z,18.88
2023-02-19T05:37:14.242Z,15.07
2023-02-19T05:39:41.214Z,18.93
2023-02-19T05:42:08.191Z,9.95
2023-02-19T05:44:35.153Z,11.98
2023-02-19T05:47:02.179Z,14.52
2023-02-19T05:49:29.198Z,12.50
2023-02-19T05:51:56.120Z,13.63
2023-02-19T05:54:23.132Z,14.88
2023-02-19T05:56:50.178Z,15.00
2023-02-19T05:59:22.366Z,18.10
2023-02-19T06:01:51.499Z,13.38
2023-02-19T06:04:20.500Z,13.67
2023-02-19T06:06:48.208Z,15.18
2023-02-19T06:09:15.305Z,16.08
2023-02-19T06:11:43.723Z,11.38
2023-02-19T06:14:13.127Z,15.18
2023-02-19T06:16:40.324Z,11.03
2023-02-19T06:19:07.381Z,19.70
2023-02-19T06:21:34.526Z,14.02
2023-02-19T06:24:08.587Z,14.95
2023-02-19T06:26:35.940Z,13.45
2023-02-19T06:29:03.096Z,14.40
2023-02-19T06:31:30.277Z,12.13
2023-02-19T06:33:57.368Z,13.77
2023-02-19T06:36:24.621Z,12.57
2023-02-19T06:38:52.171Z,11.98
2023-02-19T06:41:19.806Z,15.93
2023-02-19T06:43:46.983Z,12.32
2023-02-19T06:46:14.510Z,9.98
2023-02-19T06:48:43.599Z,15.18
2023-02-19T06:51:19.631Z,15.13
2023-02-19T06:53:46.932Z,11.93
2023-02-19T06:56:53.819Z,13.63
2023-02-19T06:59:35.609Z,13.38
2023-02-19T07:02:31.289Z,12.38
2023-02-19T07:08:15.081Z,11.87
2023-02-19T07:10:49.099Z,15.50
2023-02-19T07:13:29.681Z,17.02
2023-02-19T07:16:04.510Z,14.50
2023-02-19T07:18:44.119Z,14.73
2023-02-19T07:21:41.640Z,12.30
2023-02-19T07:24:24.484Z,8.60
2023-02-19T07:26:57.856Z,14.32
2023-02-19T07:29:28.123Z,12.45
2023-02-19T07:32:05.608Z,10.32
2023-02-19T07:34:33.607Z,12.23
2023-02-19T07:37:03.166Z,11.80
2023-02-19T07:39:32.564Z,11.63
2023-02-19T07:42:09.542Z,13.65
2023-02-19T07:44:40.553Z,12.65
2023-02-19T07:47:20.915Z,16.93
2023-02-19T07:50:07.765Z,15.65
2023-02-19T07:52:48.109Z,16.52
2023-02-19T07:55:27.400Z,15.20
2023-02-19T08:01:21.152Z,11.60
2023-02-19T08:07:28.389Z,13.63
2023-02-19T08:13:53.105Z,9.60
2023-02-19T08:16:57.572Z,9.97
2023-02-19T08:20:14.430Z,12.13
2023-02-19T08:28:57.384Z,13.98
2023-02-19T08:35:29.545Z,10.97
2023-02-19T08:38:30.954Z,15.30
2023-02-19T08:41:46.412Z,14.02
2023-02-19T08:45:03.732Z,12.98
2023-02-19T08:48:34.666Z,10.90
2023-02-19T08:51:47.420Z,16.83
2023-02-19T08:56:25.703Z,11.98
2023-02-19T08:59:47.842Z,11.90
2023-02-19T09:03:03.625Z,14.88
2023-02-19T09:09:58.552Z,11.87
2023-02-19T09:12:52.579Z,13.23
2023-02-19T09:16:04.169Z,17.15
2023-02-19T09:19:09.808Z,15.38
2023-02-19T09:22:13.240Z,12.63
2023-02-19T09:25:45.472Z,11.63
2023-02-19T09:29:06.166Z,16.35
2023-02-19T09:31:59.278Z,13.90
2023-02-19T09:35:03.095Z,12.88
2023-02-19T09:42:05.003Z,15.20
2023-02-19T09:45:23.663Z,13.70
2023-02-19T09:48:16.665Z,15.77
2023-02-19T09:50:47.817Z,16.30
2023-02-19T09:53:21.233Z,15.48
2023-02-19T09:55:48.796Z,14.03
2023-02-19T09:58:33.510Z,18.45
2023-02-19T10:01:03.502Z,15.23
2023-02-19T10:03:34.531Z,15.75
2023-02-19T10:06:24.870Z,16.85
2023-02-19T10:08:55.971Z,18.57
2023-02-19T10:11:26.495Z,10.00
2023-02-19T10:14:09.433Z,17.98
2023-02-19T10:16:41.138Z,15.02
2023-02-19T10:19:13.013Z,14.45
2023-02-19T10:21:41.963Z,17.33
2023-02-19T10:24:20.713Z,14.02
2023-02-19T10:26:48.132Z,16.52
2023-02-19T10:29:15.122Z,16.67
2023-02-19T10:31:42.262Z,13.95
2023-02-19T10:34:20.734Z,16.00
2023-02-19T10:36:51.087Z,17.30
2023-02-19T10:39:39.639Z,14.27
2023-02-19T10:42:13.732Z,12.77
2023-02-19T10:44:44.972Z,11.25
2023-02-19T10:47:18.645Z,12.90
2023-02-19T10:49:48.861Z,20.95
2023-02-19T10:52:18.569Z,15.52
2023-02-19T10:54:46.854Z,16.13
2023-02-19T10:57:19.705Z,15.25
2023-02-19T10:59:57.773Z,19.13
2023-02-19T11:02:25.957Z,17.58
2023-02-19T11:05:17.142Z,22.55
2023-02-19T11:07:57.869Z,13.05
2023-02-19T11:10:38.735Z,20.63
2023-02-19T11:13:08.114Z,15.73
2023-02-19T11:15:37.540Z,11.75
2023-02-19T11:18:18.912Z,14.85
2023-02-19T11:20:56.050Z,17.63
2023-02-19T11:23:34.381Z,19.77
2023-02-19T11:26:06.688Z,13.37
2023-02-19T11:28:39.846Z,13.63
2023-02-19T11:31:32.146Z,13.15
2023-02-19T11:34:01.898Z,12.30
2023-02-19T11:36:34.659Z,16.27
2023-02-19T11:39:17.013Z,18.70
2023-02-19T11:41:50.201Z,15.25
2023-02-19T11:44:26.172Z,16.23
2023-02-19T11:47:01.256Z,12.88
2023-02-19T11:50:03.768Z,16.08
2023-02-19T11:52:36.407Z,19.07
2023-02-19T11:55:15.620Z,14.50
2023-02-19T11:57:54.318Z,16.33
2023-02-19T12:00:28.570Z,15.38
2023-02-19T12:03:17.867Z,14.75
2023-02-19T12:06:06.466Z,16.33
2023-02-19T12:08:36.392Z,19.08
2023-02-19T12:11:16.412Z,16.77
2023-02-19T12:14:28.213Z,11.77
2023-02-19T12:17:29.101Z,15.40
2023-02-19T12:20:33.016Z,19.17
2023-02-19T12:23:45.212Z,17.85
2023-02-19T12:26:24.280Z,12.98
2023-02-19T12:29:13.336Z,15.00
2023-02-19T12:31:43.349Z,22.77
2023-02-19T12:34:25.554Z,19.03
2023-02-19T12:37:11.273Z,17.77
2023-02-19T12:40:15.951Z,15.10
2023-02-19T12:42:45.572Z,15.65
2023-02-19T12:46:03.591Z,13.80
2023-02-19T12:48:46.486Z,19.03
2023-02-19T12:51:46.562Z,20.38
2023-02-19T12:54:19.439Z,16.60
2023-02-19T12:57:03.014Z,18.80
2023-02-19T12:59:39.486Z,15.20
2023-02-19T13:02:16.724Z,19.80
2023-02-19T13:04:46.808Z,14.07
2023-02-19T13:07:16.827Z,18.95
2023-02-19T13:10:22.869Z,18.17
2023-02-19T13:12:51.649Z,15.38
2023-02-19T13:15:37.878Z,21.00
2023-02-19T13:18:16.483Z,17.27
2023-02-19T13:20:46.693Z,21.13
2023-02-19T13:23:42.497Z,22.63
2023-02-19T13:26:31.423Z,21.00
2023-02-19T13:29:16.731Z,18.40
2023-02-19T13:31:49.588Z,15.55
2023-02-19T13:34:16.680Z,18.95
2023-02-19T13:36:44.214Z,23.08
2023-02-19T13:39:29.253Z,14.95
2023-02-19T13:41:59.419Z,18.57
2023-02-19T13:44:32.686Z,20.80
2023-02-19T13:47:00.911Z,17.20
2023-02-19T13:49:27.926Z,14.75
2023-02-19T13:52:30.231Z,19.33
2023-02-19T13:55:35.329Z,21.53
2023-02-19T13:58:33.518Z,19.23
2023-02-19T14:01:11.877Z,17.55
2023-02-19T14:03:53.369Z,18.55
2023-02-19T14:06:28.770Z,19.27
2023-02-19T14:09:00.651Z,15.90
2023-02-19T14:11:48.194Z,17.75
2023-02-19T14:14:38.943Z,20.27
2023-02-19T14:17:09.010Z,18.58
2023-02-19T14:19:41.851Z,16.60
2023-02-19T14:22:58.158Z,19.07
2023-02-19T14:25:31.461Z,18.15
2023-02-19T14:28:22.017Z,16.63
2023-02-19T14:31:01.313Z,19.15
2023-02-19T14:33:32.744Z,20.10
2023-02-19T14:36:18.834Z,15.27
2023-02-19T14:38:54.975Z,21.80
2023-02-19T14:41:27.097Z,16.13
2023-02-19T14:43:58.713Z,22.63
2023-02-19T14:46:37.602Z,20.63
2023-02-19T14:49:22.056Z,16.37
2023-02-19T14:52:20.223Z,21.40
2023-02-19T14:55:15.538Z,14.80
2023-02-19T14:57:49.082Z,21.30
2023-02-19T15:00:36.140Z,20.73
2023-02-19T15:03:24.998Z,12.13
2023-02-19T15:06:08.943Z,19.65
2023-02-19T15:08:44.191Z,22.73
2023-02-19T15:11:17.608Z,19.67
2023-02-19T15:13:51.626Z,18.65
2023-02-19T15:16:21.598Z,22.47
2023-02-19T15:18:50.540Z,21.88
2023-02-19T15:21:27.418Z,21.58
2023-02-19T15:23:58.478Z,18.80
2023-02-19T15:26:36.224Z,17.88
2023-02-19T15:29:27.838Z,21.23
2023-02-19T15:31:59.116Z,16.75
2023-02-19T15:34:32.291Z,19.98
2023-02-19T15:37:08.331Z,17.95
2023-02-19T15:39:43.731Z,18.52
2023-02-19T15:42:17.990Z,19.83
2023-02-19T15:44:54.112Z,22.70
2023-02-19T15:47:29.680Z,20.85
2023-02-19T15:50:08.494Z,19.10
2023-02-19T15:52:45.537Z,17.48
2023-02-19T15:55:38.046Z,21.23
2023-02-19T15:58:30.375Z,16.05
2023-02-19T16:01:06.522Z,20.67
2023-02-19T16:03:37.526Z,15.90
2023-02-19T16:06:15.744Z,23.17
2023-02-19T16:08:53.178Z,24.13
2023-02-19T16:11:28.105Z,16.48
2023-02-19T16:14:18.578Z,19.33
2023-02-19T16:16:49.400Z,15.88
2023-02-19T16:19:32.717Z,19.92
2023-02-19T16:22:01.367Z,22.27
2023-02-19T16:24:34.783Z,22.45
2023-02-19T16:27:05.324Z,20.35
2023-02-19T16:29:37.533Z,22.05
2023-02-19T16:32:07.671Z,26.50
2023-02-19T16:34:40.852Z,20.47
2023-02-19T16:37:44.252Z,20.83
2023-02-19T16:40:16.607Z,24.88
2023-02-19T16:42:49.853Z,18.52
2023-02-19T16:45:17.931Z,25.08
2023-02-19T16:47:48.589Z,20.33
2023-02-19T16:50:24.056Z,22.73
2023-02-19T16:52:57.127Z,24.33
2023-02-19T16:55:24.573Z,22.25
2023-02-19T16:57:52.199Z,22.75
2023-02-19T17:00:25.383Z,23.47
2023-02-19T17:02:55.812Z,24.05
2023-02-19T17:05:25.602Z,21.33
2023-02-19T17:07:53.007Z,21.13
2023-02-19T17:10:25.052Z,24.48
2023-02-19T17:12:53.737Z,19.60
2023-02-19T17:15:21.592Z,20.10
2023-02-19T17:17:48.732Z,23.48
2023-02-19T17:20:24.319Z,28.50
2023-02-19T17:22:51.596Z,21.15
2023-02-19T17:25:18.644Z,19.73
2023-02-19T17:27:45.602Z,20.75
2023-02-19T17:30:31.799Z,24.00
2023-02-19T17:33:00.860Z,23.40
2023-02-19T17:35:28.420Z,22.48
2023-02-19T17:37:57.033Z,19.10
2023-02-19T17:40:33.551Z,23.00
2023-02-19T17:43:01.894Z,21.98
2023-02-19T17:45:29.733Z,25.15
2023-02-19T17:47:57.091Z,26.70
2023-02-19T17:50:28.056Z,26.80
2023-02-19T17:52:55.532Z,21.75
2023-02-19T17:55:22.956Z,26.00
2023-02-19T17:57:52.225Z,28.23
2023-02-19T18:00:28.991Z,26.90
2023-02-19T18:02:56.568Z,24.10
2023-02-19T18:05:24.772Z,25.45
2023-02-19T18:07:52.101Z,24.25
2023-02-19T18:10:21.089Z,26.05
2023-02-19T18:12:49.087Z,25.48
2023-02-19T18:15:22.116Z,24.80
2023-02-19T18:17:49.371Z,25.70
2023-02-19T18:20:18.250Z,24.85
2023-02-19T18:22:45.355Z,20.67
2023-02-19T18:25:12.506Z,25.85
2023-02-19T18:27:40.334Z,23.63
2023-02-19T18:30:08.861Z,25.02
2023-02-19T18:32:36.552Z,26.10
2023-02-19T18:35:04.798Z,27.10
2023-02-19T18:37:33.964Z,23.67
2023-02-19T18:40:01.690Z,25.50
2023-02-19T18:42:30.885Z,33.72
2023-02-19T18:44:58.220Z,26.20
2023-02-19T18:47:25.865Z,23.95
2023-02-19T18:49:58.459Z,24.42
2023-02-19T18:52:27.322Z,26.97
2023-02-19T18:54:55.855Z,25.50
2023-02-19T18:57:24.670Z,26.77
2023-02-19T18:59:51.667Z,25.02
2023-02-19T19:02:19.476Z,28.43
2023-02-19T19:04:57.364Z,27.05
2023-02-19T19:07:24.509Z,25.00
2023-02-19T19:09:51.689Z,26.17
2023-02-19T19:12:19.364Z,28.92
2023-02-19T19:14:46.598Z,28.17
2023-02-19T19:17:13.923Z,25.75
2023-02-19T19:19:45.679Z,23.85
2023-02-19T19:22:13.216Z,24.02
2023-02-19T19:24:40.453Z,25.13
2023-02-19T19:27:07.580Z,24.07
2023-02-19T19:29:34.952Z,22.90
2023-02-19T19:32:02.623Z,29.55
2023-02-19T19:34:30.024Z,21.38
2023-02-19T19:36:57.045Z,21.83
2023-02-19T19:39:24.140Z,27.53
2023-02-19T19:41:57.820Z,28.08
2023-02-19T19:44:24.927Z,19.77
2023-02-19T19:46:52.214Z,25.35
2023-02-19T19:49:21.141Z,24.42
2023-02-19T19:51:48.855Z,24.13
2023-02-19T19:54:16.635Z,23.92
2023-02-19T19:56:46.437Z,26.17
2023-02-19T19:59:15.362Z,24.88
2023-02-19T20:01:53.139Z,24.75
2023-02-19T20:04:22.267Z,24.17
2023-02-19T20:06:49.763Z,27.58
2023-02-19T20:09:18.227Z,25.63
2023-02-19T20:11:47.253Z,25.48
2023-02-19T20:14:15.187Z,23.50
2023-02-19T20:16:44.642Z,29.97
2023-02-19T20:19:12.257Z,28.52
2023-02-19T20:21:39.255Z,27.42
2023-02-19T20:24:06.602Z,31.27
2023-02-19T20:26:33.593Z,28.70
2023-02-19T20:29:00.918Z,30.73
2023-02-19T20:31:28.187Z,27.88
2023-02-19T20:33:55.773Z,29.48
2023-02-19T20:36:22.854Z,30.45
2023-02-19T20:38:50.420Z,27.90
2023-02-19T20:41:17.436Z,28.83
2023-02-19T20:43:44.387Z,31.13
2023-02-19T20:46:12.246Z,32.88
2023-02-19T20:48:39.767Z,30.85
2023-02-19T20:51:06.807Z,26.88
2023-02-19T20:53:33.980Z,32.30
2023-02-19T20:56:01.144Z,31.98
2023-02-19T20:58:28.162Z,31.77
2023-02-19T21:00:55.935Z,32.45
2023-02-19T21:03:23.026Z,32.80
2023-02-19T21:05:50.178Z,26.03
2023-02-19T21:08:17.549Z,25.77
2023-02-19T21:10:46.376Z,29.70
2023-02-19T21:13:13.791Z,29.48
2023-02-19T21:15:41.076Z,30.00
2023-02-19T21:18:08.206Z,24.53
2023-02-19T21:20:35.258Z,31.83
2023-02-19T21:23:02.388Z,25.80
2023-02-19T21:25:31.556Z,30.38
2023-02-19T21:27:58.912Z,30.50
2023-02-19T21:30:26.195Z,27.47
2023-02-19T21:32:54.446Z,30.50
2023-02-19T21:35:21.502Z,32.55
2023-02-19T21:37:48.557Z,31.33
2023-02-19T21:40:15.604Z,31.63
2023-02-19T21:42:42.619Z,38.40
2023-02-19T21:45:09.862Z,41.00
2023-02-19T21:47:36.846Z,43.50
2023-02-19T21:50:04.120Z,41.15
2023-02-19T21:52:31.510Z,43.42
2023-02-19T21:54:58.948Z,40.67
2023-02-19T21:57:25.881Z,39.75
2023-02-19T21:59:52.950Z,40.58
2023-02-19T22:02:22.195Z,40.92
2023-02-19T22:04:53.907Z,37.08
2023-02-19T22:07:22.438Z,37.70
2023-02-19T22:09:50.307Z,39.22
2023-02-19T22:12:18.549Z,37.10
2023-02-19T22:14:45.775Z,39.88
2023-02-19T22:17:12.805Z,40.53
2023-02-19T22:19:39.849Z,44.33
2023-02-19T22:22:07.072Z,43.17
2023-02-19T22:24:34.279Z,42.42
2023-02-19T22:27:01.439Z,43.60
2023-02-19T22:29:28.834Z,44.15
2023-02-19T22:31:56.281Z,36.93
2023-02-19T22:34:23.545Z,34.65
2023-02-19T22:36:50.484Z,36.75
2023-02-19T22:39:24.610Z,31.35
2023-02-19T22:41:52.169Z,36.17
2023-02-19T22:44:19.195Z,38.50
2023-02-19T22:46:51.594Z,37.70
2023-02-19T22:49:19.462Z,36.58
2023-02-19T22:51:52.299Z,38.38
2023-02-19T22:54:25.033Z,36.55
2023-02-19T22:56:53.254Z,40.50
2023-02-19T22:59:21.313Z,35.92
2023-02-19T23:01:49.968Z,36.20
2023-02-19T23:04:17.357Z,38.40
2023-02-19T23:06:45.963Z,35.92
2023-02-19T23:09:19.689Z,41.33
2023-02-19T23:11:47.187Z,41.38
2023-02-19T23:14:17.369Z,36.13
2023-02-19T23:16:44.668Z,35.00
2023-02-19T23:19:14.350Z,36.80
2023-02-19T23:21:43.300Z,44.73
2023-02-19T23:24:11.664Z,44.45
2023-02-19T23:26:47.047Z,38.80
2023-02-19T23:29:19.870Z,37.58
2023-02-19T23:31:47.541Z,36.70
2023-02-19T23:34:14.994Z,42.53
2023-02-19T23:36:48.496Z,37.67
2023-02-19T23:39:17.665Z,38.10
2023-02-19T23:41:50.548Z,37.80
2023-02-19T23:44:18.339Z,37.15
2023-02-19T23:46:45.523Z,42.50
2023-02-19T23:49:13.535Z,42.13
2023-02-19T23:51:40.989Z,40.10
2023-02-19T23:54:08.718Z,40.47
2023-02-19T23:56:35.967Z,44.67
2023-02-19T23:59:04.043Z,43.67
